This is the latest recevied weather packets stored in our database for station/object NI4CE-14. If no packets are shown the sender has not sent any weather packets the latest 10 day(s).
| Time | Temp. | Humidity | Pressure | Rain* | Wind** | Luminosity | Snow |
|---|---|---|---|---|---|---|---|
| 1777602204 | 28.33° C | 100% | 1010.1 hPa | 0 mm | - | - | - |
| 1777602165 | 28.33° C | 100% | 1009.9 hPa | 0 mm | - | - | - |
| 1777601905 | 28.33° C | 100% | 1010 hPa | 0 mm | - | - | - |
| 1777601604 | 28.33° C | 100% | 1010 hPa | 0 mm | - | - | - |
| 1777601305 | 28.33° C | 100% | 1009.9 hPa | 0 mm | - | - | - |
| 1777600510 | 28.33° C | 100% | 1009.9 hPa | 0 mm | - | - | - |
| 1777587205 | 30° C | 100% | 1009.1 hPa | 0 mm | - | - | - |
| 1777586469 | 30° C | 100% | 1009 hPa | 0 mm | - | - | - |
| 1777586305 | 30° C | 100% | 1009.1 hPa | 0 mm | - | - | - |
| 1777584342 | 30.56° C | 100% | 1009.1 hPa | 0 mm | - | - | - |
| 1777583070 | 30° C | 100% | 1009.4 hPa | 0 mm | - | - | - |
| 1777581805 | 30° C | 100% | 1009.4 hPa | 0 mm | - | - | - |
| 1777580665 | 30° C | 100% | 1009.7 hPa | 0 mm | - | - | - |
| 1777579705 | 30.56° C | 100% | 1009.8 hPa | 0 mm | - | - | - |
| 1777579105 | 30.56° C | 100% | 1009.9 hPa | 0 mm | - | - | - |
| 1777578885 | 30.56° C | 100% | 1009.8 hPa | 0 mm | - | - | - |
| 1777578805 | 30.56° C | 100% | 1009.8 hPa | 0 mm | - | - | - |
| 1777575285 | 30° C | 100% | 1010.3 hPa | 0 mm | - | - | - |
| 1777574305 | 30° C | 100% | 1010.3 hPa | 0 mm | - | - | - |
| 1777573105 | 30.56° C | 100% | 1010.8 hPa | 0 mm | - | - | - |
| 1777572292 | 31.11° C | 100% | 1010.7 hPa | 0 mm | - | - | - |
| 1777571805 | 30.56° C | 100% | 1010.8 hPa | 0 mm | - | - | - |
| 1777570576 | 30° C | 100% | 1010.9 hPa | 0 mm | - | - | - |
| 1777567520 | 30.56° C | 100% | 1011.1 hPa | 0 mm | - | - | - |
| 1777566976 | 30.56° C | 100% | 1011.1 hPa | 0 mm | - | - | - |
* Rain latest hour (hover to see other rain measurements)
** Current wind speed in m/s (hover to see current wind gust speed)